Time;durP1;ratioP1;P1;durP2;ratioP2;P2;SDS_P1;SDS_P2;PMS_P1;PMS_P2;Temp;Humidity;BMP_temperature;BMP_pressure;BME280_temperature;BME280_humidity;BME280_pressure;Samples;Min_cycle;Max_cycle;Signal;HPM_P1;HPM_P2
2021/11/21 00:01:13;;;;;;;12.90;10.90;;;6.00;99.90;;;;;;5050743;28;20453;-82
2021/11/21 00:03:39;;;;;;;18.27;14.80;;;6.00;99.90;;;;;;5050540;28;20615;-82
2021/11/21 00:06:05;;;;;;;20.63;14.07;;;6.00;99.90;;;;;;5050640;28;20431;-81
2021/11/21 00:08:31;;;;;;;17.03;12.60;;;6.00;99.90;;;;;;5050194;28;20816;-82
2021/11/21 00:10:57;;;;;;;18.13;10.93;;;6.00;99.90;;;;;;5050600;28;20453;-82
2021/11/21 00:13:23;;;;;;;14.57;11.43;;;6.00;99.90;;;;;;5050436;28;20271;-82
2021/11/21 00:15:49;;;;;;;14.60;11.27;;;6.00;99.90;;;;;;5050558;28;20407;-81
2021/11/21 00:18:15;;;;;;;16.03;11.43;;;6.00;99.90;;;;;;5045907;28;20536;-80
2021/11/21 00:20:42;;;;;;;15.03;10.60;;;6.00;99.90;;;;;;5029056;28;20259;-81
2021/11/21 00:23:08;;;;;;;14.80;11.27;;;6.00;99.90;;;;;;5029896;28;20895;-81
2021/11/21 00:25:34;;;;;;;16.63;10.53;;;6.00;99.90;;;;;;5035465;28;20448;-81
2021/11/21 00:28:00;;;;;;;14.80;9.20;;;6.00;99.90;;;;;;5034111;28;20785;-82
2021/11/21 00:30:26;;;;;;;16.50;11.40;;;6.00;99.90;;;;;;5033319;28;20214;-81
2021/11/21 00:32:52;;;;;;;16.63;10.80;;;6.00;99.90;;;;;;5031200;28;20518;-81
2021/11/21 00:35:18;;;;;;;14.57;10.37;;;6.00;99.90;;;;;;5029905;28;20404;-80
2021/11/21 00:37:43;;;;;;;15.83;11.53;;;5.90;99.90;;;;;;5030016;28;20630;-81
2021/11/21 00:40:10;;;;;;;23.33;13.30;;;5.90;99.90;;;;;;5030006;28;20178;-81
2021/11/21 00:42:36;;;;;;;13.73;10.23;;;5.90;99.90;;;;;;5030244;28;20250;-81
2021/11/21 00:45:04;;;;;;;12.80;10.20;;;5.90;99.90;;;;;;5030351;28;20526;-81
2021/11/21 00:47:30;;;;;;;25.20;15.77;;;6.00;99.90;;;;;;5029969;28;20416;-81
2021/11/21 00:49:55;;;;;;;25.53;14.80;;;6.00;99.90;;;;;;5030372;28;20419;-81
2021/11/21 00:52:21;;;;;;;21.07;13.73;;;6.10;99.90;;;;;;5029755;28;20267;-81
2021/11/21 00:57:14;;;;;;;21.40;13.00;;;6.10;99.90;;;;;;5031891;28;20464;-81
2021/11/21 00:59:39;;;;;;;14.40;11.13;;;6.10;99.90;;;;;;5030106;28;20173;-81
2021/11/21 01:02:09;;;;;;;16.27;10.47;;;6.10;99.90;;;;;;5032518;28;20432;-81
2021/11/21 01:04:37;;;;;;;14.00;10.07;;;6.10;99.90;;;;;;5033905;28;20523;-81
2021/11/21 01:07:03;;;;;;;16.97;11.80;;;6.20;99.90;;;;;;5034475;28;20428;-81
2021/11/21 01:09:29;;;;;;;16.53;10.83;;;6.10;99.90;;;;;;5033996;28;20413;-81
2021/11/21 01:11:57;;;;;;;20.67;12.10;;;6.20;99.90;;;;;;5033909;28;20462;-81
2021/11/21 01:14:27;;;;;;;14.97;11.87;;;6.20;99.90;;;;;;5033798;28;20436;-81
2021/11/21 01:16:52;;;;;;;19.20;14.20;;;6.20;99.90;;;;;;5033878;28;20428;-81
2021/11/21 01:19:18;;;;;;;17.90;11.63;;;6.20;99.90;;;;;;5033298;28;20797;-81
2021/11/21 01:21:45;;;;;;;11.60;8.97;;;6.30;99.90;;;;;;5033981;28;20176;-81
2021/11/21 01:24:10;;;;;;;11.10;9.60;;;6.30;99.90;;;;;;5033657;28;20441;-81
2021/11/21 01:26:36;;;;;;;12.20;8.63;;;6.20;99.90;;;;;;5033937;28;20433;-81
2021/11/21 01:29:02;;;;;;;11.97;8.80;;;6.20;99.90;;;;;;5035101;28;20420;-81
2021/11/21 01:31:28;;;;;;;12.83;8.80;;;6.20;99.90;;;;;;5033314;28;20209;-81
2021/11/21 01:33:54;;;;;;;11.77;8.67;;;6.20;99.90;;;;;;5033475;28;20428;-81
2021/11/21 01:36:21;;;;;;;13.13;9.67;;;6.20;99.90;;;;;;5033423;28;20819;-81
2021/11/21 01:38:46;;;;;;;10.30;8.90;;;6.20;99.90;;;;;;5033789;28;20415;-80
2021/11/21 01:41:13;;;;;;;13.77;8.80;;;6.30;99.90;;;;;;5033998;28;20642;-81
2021/11/21 01:43:40;;;;;;;12.00;9.40;;;6.20;99.90;;;;;;5033237;28;20221;-81
2021/11/21 01:46:06;;;;;;;10.70;7.83;;;6.20;99.90;;;;;;5033490;28;20474;-81
2021/11/21 01:48:32;;;;;;;11.63;9.07;;;6.10;99.90;;;;;;5033260;28;20504;-81
2021/11/21 01:51:02;;;;;;;12.50;8.63;;;6.10;99.90;;;;;;5033357;28;20426;-81
2021/11/21 01:53:28;;;;;;;11.57;9.47;;;6.20;99.90;;;;;;5033281;28;20476;-81
2021/11/21 01:55:54;;;;;;;12.17;9.07;;;6.20;99.90;;;;;;5033052;28;20419;-81
2021/11/21 01:58:20;;;;;;;9.23;8.27;;;6.20;99.90;;;;;;5032569;28;20170;-81
2021/11/21 02:00:47;;;;;;;9.30;7.40;;;6.30;99.90;;;;;;5032787;28;20431;-80
2021/11/21 02:03:13;;;;;;;11.33;9.07;;;6.30;99.90;;;;;;5032679;28;20202;-81
2021/11/21 02:05:39;;;;;;;10.40;7.50;;;6.20;99.90;;;;;;5032874;28;20551;-81
2021/11/21 02:08:05;;;;;;;9.33;8.40;;;6.30;99.90;;;;;;5032380;28;20570;-80
2021/11/21 02:10:34;;;;;;;8.17;6.90;;;6.20;99.90;;;;;;5032716;28;20199;-81
2021/11/21 02:13:02;;;;;;;9.00;6.83;;;6.20;99.90;;;;;;5032302;28;20485;-80
2021/11/21 02:15:28;;;;;;;10.80;7.93;;;6.20;99.90;;;;;;5032651;28;20415;-81
2021/11/21 02:17:55;;;;;;;11.20;7.83;;;6.20;99.90;;;;;;5033343;28;20518;-81
2021/11/21 02:20:32;;;;;;;10.20;8.53;;;6.30;99.90;;;;;;5032735;28;20446;-81
2021/11/21 02:22:59;;;;;;;10.13;8.27;;;6.30;99.90;;;;;;5032335;28;20438;-81
2021/11/21 02:25:24;;;;;;;11.90;8.00;;;6.30;99.90;;;;;;5032375;28;20421;-80
2021/11/21 02:27:50;;;;;;;10.27;8.10;;;6.30;99.90;;;;;;5031954;28;20486;-81
2021/11/21 02:30:16;;;;;;;10.50;7.80;;;6.30;99.90;;;;;;5032080;28;20175;-81
2021/11/21 02:32:51;;;;;;;10.60;8.80;;;6.40;99.90;;;;;;5032172;28;20892;-81
2021/11/21 02:35:17;;;;;;;13.93;8.23;;;6.30;99.90;;;;;;5032231;28;20195;-81
2021/11/21 02:37:43;;;;;;;11.43;8.30;;;6.40;99.90;;;;;;5031959;28;20428;-80
2021/11/21 02:40:10;;;;;;;9.57;7.80;;;6.40;99.90;;;;;;5032261;28;20441;-81
2021/11/21 02:42:36;;;;;;;7.80;6.53;;;6.40;99.90;;;;;;5031907;28;20926;-80
2021/11/21 02:45:09;;;;;;;12.23;7.37;;;6.40;99.90;;;;;;5031899;28;20758;-81
2021/11/21 02:47:35;;;;;;;9.83;6.90;;;6.40;99.90;;;;;;5031697;28;20415;-80
2021/11/21 02:50:09;;;;;;;9.80;7.17;;;6.40;99.90;;;;;;5031861;28;20452;-80
2021/11/21 02:52:35;;;;;;;11.30;8.03;;;6.40;99.90;;;;;;5031796;28;20899;-81
2021/11/21 02:55:01;;;;;;;10.73;8.50;;;6.40;99.90;;;;;;5032367;28;20450;-81
2021/11/21 02:57:27;;;;;;;9.17;7.40;;;6.40;99.90;;;;;;5031791;28;20222;-81
2021/11/21 02:59:53;;;;;;;12.77;7.43;;;6.40;99.90;;;;;;5031708;28;20980;-81
2021/11/21 03:02:19;;;;;;;10.60;7.93;;;6.30;99.90;;;;;;5031727;28;20426;-81
2021/11/21 03:04:51;;;;;;;9.43;7.40;;;6.40;99.90;;;;;;5031751;28;20436;-82
2021/11/21 03:07:17;;;;;;;8.67;7.03;;;6.30;99.90;;;;;;5031668;28;20418;-81
2021/11/21 03:09:45;;;;;;;12.83;8.60;;;6.30;99.90;;;;;;5031601;28;20413;-81
2021/11/21 03:12:11;;;;;;;10.37;8.47;;;6.30;99.90;;;;;;5031580;28;20536;-81
2021/11/21 03:14:37;;;;;;;10.73;9.00;;;6.30;99.90;;;;;;5031478;28;20466;-81
2021/11/21 03:17:04;;;;;;;9.90;8.10;;;6.30;99.90;;;;;;5031542;28;20233;-82
2021/11/21 03:19:29;;;;;;;9.00;6.80;;;6.20;99.90;;;;;;5031379;28;20437;-81
2021/11/21 03:21:55;;;;;;;9.80;7.83;;;6.20;99.90;;;;;;5031575;28;20506;-81
2021/11/21 03:24:21;;;;;;;9.73;8.00;;;6.30;99.90;;;;;;5030824;28;20210;-81
2021/11/21 03:26:46;;;;;;;9.67;6.90;;;6.20;99.90;;;;;;5031319;28;20583;-81
2021/11/21 03:29:13;;;;;;;11.50;8.37;;;6.30;99.90;;;;;;5031071;28;20190;-82
2021/11/21 03:31:38;;;;;;;10.40;6.90;;;6.30;99.90;;;;;;5031225;28;20197;-81
2021/11/21 03:34:04;;;;;;;9.27;7.97;;;6.20;99.90;;;;;;5031132;28;20429;-81
2021/11/21 03:36:33;;;;;;;9.23;7.17;;;6.30;99.90;;;;;;5031518;28;20199;-81
2021/11/21 03:39:00;;;;;;;8.87;6.73;;;6.40;99.90;;;;;;5030883;28;20492;-81
2021/11/21 03:41:26;;;;;;;8.90;6.47;;;6.30;99.90;;;;;;5031140;28;20414;-82
2021/11/21 03:43:53;;;;;;;9.90;7.27;;;6.40;99.90;;;;;;5032288;28;20486;-81
2021/11/21 03:46:20;;;;;;;8.27;6.77;;;6.40;99.90;;;;;;5031063;28;20413;-82
2021/11/21 03:48:46;;;;;;;8.83;6.43;;;6.30;99.90;;;;;;5030950;28;20406;-82
2021/11/21 03:51:12;;;;;;;7.73;6.83;;;6.30;99.90;;;;;;5031068;28;20425;-81
2021/11/21 03:53:38;;;;;;;7.70;6.03;;;6.30;99.90;;;;;;5030771;28;20204;-81
2021/11/21 03:56:04;;;;;;;7.50;6.30;;;6.30;99.90;;;;;;5030958;28;20174;-82
2021/11/21 03:58:30;;;;;;;6.80;5.60;;;6.30;99.90;;;;;;5030767;28;20997;-81
2021/11/21 04:00:56;;;;;;;7.40;6.00;;;6.30;99.90;;;;;;5030942;28;20628;-81
2021/11/21 04:03:21;;;;;;;4.43;4.03;;;6.30;99.90;;;;;;5030763;28;20195;-81
2021/11/21 04:05:47;;;;;;;6.67;5.93;;;6.30;99.90;;;;;;5030763;28;20171;-81
2021/11/21 04:08:13;;;;;;;5.23;4.47;;;6.30;99.90;;;;;;5030544;28;20180;-82
2021/11/21 04:10:39;;;;;;;5.57;5.03;;;6.30;99.90;;;;;;5030798;28;20176;-82
2021/11/21 04:13:05;;;;;;;8.67;7.30;;;6.30;99.90;;;;;;5030717;28;20554;-81
2021/11/21 04:15:31;;;;;;;7.30;5.40;;;6.30;99.90;;;;;;5030733;28;20176;-82
2021/11/21 04:17:58;;;;;;;6.60;5.90;;;6.30;99.90;;;;;;5030438;28;20469;-81
2021/11/21 04:20:24;;;;;;;7.77;6.10;;;6.30;99.90;;;;;;5031855;28;20414;-81
2021/11/21 04:22:50;;;;;;;7.93;5.47;;;6.30;99.90;;;;;;5030468;28;20516;-82
2021/11/21 04:25:16;;;;;;;5.27;4.77;;;6.40;99.90;;;;;;5030647;28;20571;-81
2021/11/21 04:27:42;;;;;;;6.83;5.50;;;6.40;99.90;;;;;;5030348;28;20596;-81
2021/11/21 04:30:11;;;;;;;6.70;4.93;;;6.30;99.90;;;;;;5030608;28;20510;-81
2021/11/21 04:32:37;;;;;;;5.23;4.73;;;6.30;99.90;;;;;;5030405;28;20204;-82
2021/11/21 04:35:09;;;;;;;6.60;4.60;;;6.20;99.90;;;;;;5030535;28;20420;-81
2021/11/21 04:37:35;;;;;;;4.40;4.00;;;6.20;99.90;;;;;;5033643;28;20796;-82
2021/11/21 04:40:02;;;;;;;5.20;4.37;;;6.10;99.90;;;;;;5034482;28;20408;-81
2021/11/21 04:42:27;;;;;;;5.97;5.00;;;6.10;99.90;;;;;;5034212;28;20423;-82
2021/11/21 04:44:53;;;;;;;4.77;4.37;;;6.10;99.90;;;;;;5034390;28;20421;-82
2021/11/21 04:47:19;;;;;;;5.77;5.07;;;6.00;99.90;;;;;;5034305;28;20182;-82
2021/11/21 04:49:44;;;;;;;7.83;5.17;;;6.10;99.90;;;;;;5034391;28;20228;-82
2021/11/21 04:52:10;;;;;;;6.20;4.10;;;6.10;99.90;;;;;;5034215;28;20206;-81
2021/11/21 04:54:36;;;;;;;5.40;4.90;;;6.20;99.90;;;;;;5034196;28;20197;-81
2021/11/21 04:57:03;;;;;;;4.77;4.37;;;6.10;99.90;;;;;;5034227;28;20204;-81
2021/11/21 04:59:29;;;;;;;5.30;4.50;;;6.10;99.90;;;;;;5033992;28;20407;-82
2021/11/21 05:01:55;;;;;;;5.67;5.00;;;6.10;99.90;;;;;;5034052;28;20424;-82
2021/11/21 05:04:20;;;;;;;7.63;5.40;;;6.10;99.90;;;;;;5033891;28;20614;-82
2021/11/21 05:06:46;;;;;;;8.33;5.17;;;6.10;99.90;;;;;;5034116;28;20172;-81
2021/11/21 05:09:12;;;;;;;5.63;4.20;;;6.10;99.90;;;;;;5033808;28;20630;-82
2021/11/21 05:11:38;;;;;;;9.00;4.77;;;6.00;99.90;;;;;;5033763;28;20205;-82
2021/11/21 05:14:04;;;;;;;7.63;5.83;;;6.10;99.90;;;;;;5033799;28;20194;-82
2021/11/21 05:16:31;;;;;;;5.20;4.70;;;6.00;99.90;;;;;;5033846;28;20210;-81
2021/11/21 05:18:57;;;;;;;6.77;5.87;;;6.00;99.90;;;;;;5033637;28;20432;-81
2021/11/21 05:21:22;;;;;;;8.80;6.47;;;5.90;99.90;;;;;;5033807;28;20424;-82
2021/11/21 05:23:48;;;;;;;10.90;5.20;;;6.10;99.90;;;;;;5033996;28;20691;-82
2021/11/21 05:26:14;;;;;;;12.30;6.43;;;6.00;99.90;;;;;;5033710;28;20250;-81
2021/11/21 05:28:40;;;;;;;9.50;6.00;;;6.00;99.90;;;;;;5033394;28;20419;-81
2021/11/21 05:31:05;;;;;;;6.70;5.60;;;6.00;99.90;;;;;;5033530;28;20523;-81
2021/11/21 05:33:31;;;;;;;6.90;5.40;;;6.00;99.90;;;;;;5033300;28;20693;-81
2021/11/21 05:35:57;;;;;;;7.00;4.80;;;6.00;99.90;;;;;;5033543;28;20175;-82
2021/11/21 05:38:22;;;;;;;6.00;5.20;;;6.00;99.90;;;;;;5033236;28;20183;-82
2021/11/21 05:40:49;;;;;;;8.53;6.20;;;6.00;99.90;;;;;;5033337;28;20177;-81
2021/11/21 05:43:15;;;;;;;8.43;5.60;;;6.00;99.90;;;;;;5033404;28;20695;-81
2021/11/21 05:45:41;;;;;;;8.17;6.00;;;6.00;99.90;;;;;;5033244;28;20413;-81
2021/11/21 05:48:06;;;;;;;7.07;5.97;;;6.00;99.90;;;;;;5032757;28;20420;-81
2021/11/21 05:50:32;;;;;;;6.50;4.40;;;6.10;99.90;;;;;;5033209;28;20175;-82
2021/11/21 05:52:58;;;;;;;6.07;4.77;;;6.00;99.90;;;;;;5033044;28;20218;-81
2021/11/21 05:55:23;;;;;;;9.33;5.93;;;6.10;99.90;;;;;;5033143;28;20200;-81
2021/11/21 05:57:50;;;;;;;6.70;6.00;;;6.00;99.90;;;;;;5032859;28;20176;-82
2021/11/21 06:00:23;;;;;;;7.20;5.33;;;6.00;99.90;;;;;;5033041;28;20518;-81
2021/11/21 06:02:49;;;;;;;8.07;5.53;;;6.00;99.90;;;;;;5033116;28;20847;-81
2021/11/21 06:05:15;;;;;;;12.63;6.00;;;6.00;99.90;;;;;;5032882;28;20421;-82
2021/11/21 06:07:41;;;;;;;8.10;5.60;;;6.00;99.90;;;;;;5032729;28;20501;-81
2021/11/21 06:10:08;;;;;;;7.13;5.43;;;5.90;99.90;;;;;;5032772;28;20508;-82
2021/11/21 06:12:34;;;;;;;7.90;6.63;;;5.90;99.90;;;;;;5032683;28;20463;-81
2021/11/21 06:15:00;;;;;;;11.67;5.50;;;5.90;99.90;;;;;;5032777;28;20409;-81
2021/11/21 06:17:26;;;;;;;8.33;6.23;;;5.90;99.90;;;;;;5032288;28;20423;-82
2021/11/21 06:19:52;;;;;;;6.50;5.50;;;5.90;99.90;;;;;;5032765;28;20669;-82
2021/11/21 06:22:18;;;;;;;6.80;5.33;;;5.90;99.90;;;;;;5032666;28;20235;-82
2021/11/21 06:24:45;;;;;;;8.13;5.90;;;5.90;99.90;;;;;;5032498;28;20431;-81
2021/11/21 06:27:11;;;;;;;7.53;6.07;;;5.90;99.90;;;;;;5032568;28;20420;-81
2021/11/21 06:29:37;;;;;;;5.83;5.33;;;5.90;99.90;;;;;;5032413;28;20917;-82
2021/11/21 06:32:03;;;;;;;9.13;6.30;;;6.00;99.90;;;;;;5032341;28;20461;-82
2021/11/21 06:34:29;;;;;;;7.50;6.40;;;6.00;99.90;;;;;;5032374;28;20441;-82
2021/11/21 06:36:54;;;;;;;5.90;5.30;;;6.00;99.90;;;;;;5032373;28;20890;-82
2021/11/21 06:39:20;;;;;;;7.70;5.73;;;6.00;99.90;;;;;;5033480;28;20252;-82
2021/11/21 06:41:46;;;;;;;8.67;5.87;;;6.10;99.90;;;;;;5032293;28;20547;-82
2021/11/21 06:44:12;;;;;;;7.07;5.80;;;6.10;99.90;;;;;;5032068;28;20199;-82
2021/11/21 06:46:38;;;;;;;7.17;5.10;;;6.10;99.90;;;;;;5032072;28;20176;-82
2021/11/21 06:49:04;;;;;;;6.03;5.30;;;6.10;99.90;;;;;;5032015;28;20418;-81
2021/11/21 06:51:30;;;;;;;5.80;4.97;;;6.10;99.90;;;;;;5032092;28;20963;-82
2021/11/21 06:53:57;;;;;;;8.53;5.40;;;6.10;99.90;;;;;;5031805;28;20444;-82
2021/11/21 06:56:23;;;;;;;6.43;5.07;;;6.10;99.90;;;;;;5031963;28;20458;-82
2021/11/21 06:58:50;;;;;;;7.50;5.53;;;6.10;99.90;;;;;;5030883;28;20440;-82
2021/11/21 07:01:16;;;;;;;8.80;5.80;;;6.10;99.90;;;;;;5031858;28;20426;-82
2021/11/21 07:03:43;;;;;;;6.57;5.80;;;6.00;99.90;;;;;;5031803;28;20431;-82
2021/11/21 07:06:31;;;;;;;7.83;6.00;;;6.00;99.90;;;;;;5031860;28;20770;-82
2021/11/21 07:08:56;;;;;;;6.00;4.90;;;6.00;99.90;;;;;;5031536;28;20546;-82
2021/11/21 07:11:23;;;;;;;7.67;5.93;;;6.00;99.90;;;;;;5031769;28;20882;-82
2021/11/21 07:13:48;;;;;;;7.30;4.97;;;6.00;99.90;;;;;;5031496;28;20255;-82
2021/11/21 07:16:15;;;;;;;11.03;5.47;;;6.10;99.90;;;;;;5031687;28;20406;-82
2021/11/21 07:18:40;;;;;;;14.77;6.57;;;6.10;99.90;;;;;;5031316;28;20242;-82
2021/11/21 07:21:06;;;;;;;16.93;7.40;;;6.10;99.90;;;;;;5031601;28;20409;-82
2021/11/21 07:23:33;;;;;;;7.17;5.03;;;6.10;99.90;;;;;;5031219;28;20197;-82
2021/11/21 07:26:00;;;;;;;5.93;5.10;;;6.00;99.90;;;;;;5031880;28;20840;-82
2021/11/21 07:28:25;;;;;;;13.53;6.70;;;6.00;99.90;;;;;;5031017;28;20419;-82
2021/11/21 07:30:51;;;;;;;6.80;6.13;;;6.00;99.90;;;;;;5031401;28;20491;-82
2021/11/21 07:33:16;;;;;;;8.80;5.33;;;6.10;99.90;;;;;;5032390;28;20237;-81
2021/11/21 07:35:42;;;;;;;12.10;6.50;;;6.10;99.90;;;;;;5031120;28;20181;-82
2021/11/21 07:38:08;;;;;;;9.47;8.00;;;6.00;99.90;;;;;;5031028;28;20202;-82
2021/11/21 07:40:33;;;;;;;9.07;7.03;;;6.00;99.90;;;;;;5031098;28;20187;-81
2021/11/21 07:43:02;;;;;;;8.30;6.60;;;6.00;99.90;;;;;;5031093;28;20197;-81
2021/11/21 07:45:28;;;;;;;7.70;6.30;;;5.90;99.90;;;;;;5031072;28;20182;-82
2021/11/21 07:47:53;;;;;;;13.70;7.27;;;6.00;99.90;;;;;;5030797;28;21079;-82
2021/11/21 07:50:20;;;;;;;11.80;8.07;;;6.00;99.90;;;;;;5031040;28;20176;-82
2021/11/21 07:52:46;;;;;;;11.73;6.83;;;6.10;99.90;;;;;;5030746;28;20210;-82
2021/11/21 07:55:12;;;;;;;15.33;6.73;;;6.10;99.90;;;;;;5031000;28;20986;-82
2021/11/21 07:57:38;;;;;;;9.73;7.20;;;6.10;99.90;;;;;;5030922;28;20181;-81
2021/11/21 08:00:07;;;;;;;8.47;6.83;;;6.00;99.90;;;;;;5030911;28;20920;-81
2021/11/21 08:02:33;;;;;;;9.07;5.80;;;6.10;99.90;;;;;;5030857;28;20264;-81
2021/11/21 08:04:58;;;;;;;10.93;6.57;;;6.10;99.90;;;;;;5030907;28;20418;-81
2021/11/21 08:07:24;;;;;;;14.50;6.30;;;6.00;99.90;;;;;;5030573;28;20478;-82
2021/11/21 08:09:50;;;;;;;9.87;7.00;;;6.10;99.90;;;;;;5030629;28;20182;-81
2021/11/21 08:12:16;;;;;;;9.77;6.80;;;6.10;99.90;;;;;;5030600;28;20205;-81
2021/11/21 08:14:42;;;;;;;8.67;6.53;;;6.00;99.90;;;;;;5030595;28;20208;-82
2021/11/21 08:17:07;;;;;;;13.43;8.57;;;6.00;99.90;;;;;;5030692;28;20414;-82
2021/11/21 08:19:33;;;;;;;11.00;8.10;;;6.00;99.90;;;;;;5030414;28;20275;-81
2021/11/21 08:21:59;;;;;;;9.70;7.70;;;6.10;99.90;;;;;;5030587;28;20696;-82
2021/11/21 08:24:25;;;;;;;13.80;9.33;;;6.10;99.90;;;;;;5030567;28;20218;-81
2021/11/21 08:26:50;;;;;;;13.10;7.10;;;6.10;99.90;;;;;;5030638;28;20472;-81
2021/11/21 08:29:16;;;;;;;9.80;6.43;;;6.10;99.90;;;;;;5030416;28;20625;-83
2021/11/21 08:31:42;;;;;;;9.07;7.63;;;6.10;99.90;;;;;;5030724;28;20644;-82
2021/11/21 08:34:09;;;;;;;8.47;6.50;;;6.10;99.90;;;;;;5030457;28;20196;-82
2021/11/21 08:36:35;;;;;;;7.90;6.23;;;6.00;99.90;;;;;;5030522;28;20543;-82
2021/11/21 08:39:01;;;;;;;7.67;6.43;;;6.00;99.90;;;;;;5030130;28;20416;-82
2021/11/21 08:41:27;;;;;;;7.50;5.37;;;6.00;99.90;;;;;;5031610;28;20413;-82
2021/11/21 08:43:53;;;;;;;6.13;5.53;;;6.00;99.90;;;;;;5031845;28;20504;-82
2021/11/21 08:46:18;;;;;;;8.37;5.77;;;6.00;99.90;;;;;;5031840;28;20262;-82
2021/11/21 08:48:44;;;;;;;7.57;5.07;;;6.10;99.90;;;;;;5031414;28;20201;-82
2021/11/21 08:51:10;;;;;;;7.10;6.40;;;6.10;99.90;;;;;;5030461;28;20170;-82
2021/11/21 08:53:36;;;;;;;7.77;6.30;;;6.10;99.90;;;;;;5030275;28;20209;-82
2021/11/21 08:56:01;;;;;;;6.20;4.70;;;6.20;99.90;;;;;;5030389;28;20628;-82
2021/11/21 08:58:27;;;;;;;83.57;61.20;;;6.30;99.90;;;;;;5030170;28;20175;-82
2021/11/21 09:00:53;;;;;;;111.23;82.77;;;6.30;99.90;;;;;;5030326;28;20176;-82
2021/11/21 09:03:18;;;;;;;39.33;29.23;;;6.30;99.90;;;;;;5030160;28;20199;-82
2021/11/21 09:05:44;;;;;;;12.90;8.80;;;6.50;99.90;;;;;;5030323;28;20179;-82
2021/11/21 09:08:10;;;;;;;8.67;6.77;;;6.50;99.90;;;;;;5030024;28;20175;-82
2021/11/21 09:10:36;;;;;;;11.63;7.30;;;6.50;99.90;;;;;;5030205;28;20184;-82
2021/11/21 09:13:02;;;;;;;6.20;5.53;;;6.50;99.90;;;;;;5030133;28;20482;-82
2021/11/21 09:15:28;;;;;;;4.63;3.80;;;6.50;99.90;;;;;;5030368;28;20173;-82
2021/11/21 09:17:54;;;;;;;4.60;4.13;;;6.60;99.90;;;;;;5030182;28;20432;-82
2021/11/21 09:20:23;;;;;;;4.47;3.70;;;6.50;99.90;;;;;;5030229;28;20472;-82
2021/11/21 09:22:50;;;;;;;4.67;3.50;;;6.60;99.90;;;;;;5031920;28;20544;-82
2021/11/21 09:25:16;;;;;;;3.13;2.83;;;6.60;99.90;;;;;;5034107;28;20773;-82
2021/11/21 09:27:42;;;;;;;5.37;4.23;;;6.60;99.90;;;;;;5033415;28;20423;-82
2021/11/21 09:30:09;;;;;;;3.83;3.20;;;6.60;99.90;;;;;;5033575;28;20213;-82
2021/11/21 09:32:35;;;;;;;3.87;3.57;;;6.60;99.90;;;;;;5033460;28;20488;-82
2021/11/21 09:35:02;;;;;;;3.30;3.00;;;6.60;99.90;;;;;;5033533;28;20407;-82
2021/11/21 09:37:28;;;;;;;3.10;2.67;;;6.70;99.90;;;;;;5033412;28;20179;-82
2021/11/21 09:39:54;;;;;;;2.80;2.43;;;6.60;99.90;;;;;;5033785;28;20464;-82
2021/11/21 09:42:19;;;;;;;2.60;2.40;;;6.70;99.90;;;;;;5033462;28;20180;-82
2021/11/21 09:44:45;;;;;;;2.63;2.43;;;6.70;99.90;;;;;;5033349;28;20540;-82
2021/11/21 09:47:14;;;;;;;2.53;2.37;;;6.70;99.90;;;;;;5033198;28;20205;-81
2021/11/21 09:49:41;;;;;;;3.63;2.70;;;6.60;99.90;;;;;;5033221;28;20179;-82
2021/11/21 09:52:07;;;;;;;2.47;2.27;;;6.60;99.90;;;;;;5033064;28;20826;-82
2021/11/21 09:54:33;;;;;;;2.37;2.20;;;6.70;99.90;;;;;;5033146;28;20434;-81
2021/11/21 09:56:58;;;;;;;2.17;2.03;;;6.60;99.90;;;;;;5033227;28;20479;-82
2021/11/21 10:00:01;;;;;;;1.90;1.80;;;6.60;99.90;;;;;;5032960;28;20581;-82
2021/11/21 10:02:38;;;;;;;2.47;2.27;;;6.60;99.90;;;;;;5032818;28;20176;-82
2021/11/21 10:05:07;;;;;;;1.93;1.83;;;6.70;99.90;;;;;;5033040;28;20965;-82
2021/11/21 10:07:35;;;;;;;1.90;1.80;;;6.70;99.90;;;;;;5032853;28;20473;-82
2021/11/21 10:10:05;;;;;;;2.07;1.97;;;6.70;99.90;;;;;;5032957;28;20497;-82
2021/11/21 10:12:41;;;;;;;2.00;1.90;;;6.70;99.90;;;;;;5032722;28;20454;-82
2021/11/21 10:15:13;;;;;;;1.80;1.70;;;6.70;99.90;;;;;;5032779;28;20788;-82
2021/11/21 10:17:46;;;;;;;2.47;2.13;;;6.70;99.90;;;;;;5032488;28;20508;-82
2021/11/21 10:20:20;;;;;;;2.60;2.40;;;6.80;99.90;;;;;;5032752;28;20645;-82
2021/11/21 10:22:55;;;;;;;1.70;1.60;;;6.90;99.90;;;;;;5032625;28;20464;-82
2021/11/21 10:25:34;;;;;;;2.10;1.80;;;6.90;99.90;;;;;;5032672;28;20936;-82
2021/11/21 10:28:18;;;;;;;1.60;1.50;;;6.90;99.90;;;;;;5050637;28;20515;-82
2021/11/21 10:30:59;;;;;;;1.67;1.57;;;6.90;99.90;;;;;;5052425;28;20425;-82
2021/11/21 10:33:27;;;;;;;1.47;1.40;;;7.00;99.90;;;;;;5052187;28;20842;-82
2021/11/21 10:36:02;;;;;;;2.10;1.90;;;7.00;99.90;;;;;;5051724;28;20432;-81
2021/11/21 10:38:36;;;;;;;1.50;1.40;;;7.10;99.90;;;;;;5050272;28;20448;-82
2021/11/21 10:41:08;;;;;;;1.60;1.50;;;7.10;99.90;;;;;;5051654;28;20501;-82
2021/11/21 10:43:48;;;;;;;1.40;1.30;;;7.20;99.90;;;;;;5052071;28;20441;-82
2021/11/21 10:46:27;;;;;;;1.70;1.50;;;7.20;99.90;;;;;;5051922;28;20424;-82
2021/11/21 10:48:54;;;;;;;1.73;1.63;;;7.30;99.90;;;;;;5052038;28;20411;-82
2021/11/21 10:51:24;;;;;;;2.43;1.90;;;7.30;99.90;;;;;;5052067;28;20418;-82
2021/11/21 10:53:51;;;;;;;2.00;1.80;;;7.40;99.90;;;;;;5051834;28;20457;-82
2021/11/21 10:56:17;;;;;;;2.17;2.07;;;7.50;99.90;;;;;;5051927;28;20405;-82
2021/11/21 10:58:50;;;;;;;1.80;1.70;;;7.50;99.90;;;;;;5051564;28;20418;-82
2021/11/21 11:01:24;;;;;;;1.57;1.47;;;7.50;99.90;;;;;;5051802;28;20417;-82
2021/11/21 11:04:10;;;;;;;3.43;2.40;;;7.60;99.90;;;;;;5051610;28;20525;-82
2021/11/21 11:06:37;;;;;;;1.50;1.40;;;7.60;99.90;;;;;;5051659;28;20409;-82
2021/11/21 11:09:20;;;;;;;1.73;1.63;;;7.60;99.90;;;;;;5051368;28;20417;-82
2021/11/21 11:11:48;;;;;;;1.73;1.63;;;7.60;99.90;;;;;;5051624;28;20403;-82
2021/11/21 11:14:18;;;;;;;2.63;2.00;;;7.60;99.90;;;;;;5051642;28;20446;-82
2021/11/21 11:16:54;;;;;;;14.00;9.00;;;7.70;99.90;;;;;;5051985;28;20412;-82
2021/11/21 11:19:20;;;;;;;96.90;35.30;;;7.80;99.90;;;;;;5051115;28;20418;-82
2021/11/21 11:21:50;;;;;;;37.73;14.83;;;7.80;99.90;;;;;;5051358;28;20410;-82
2021/11/21 11:24:22;;;;;;;156.13;46.20;;;8.00;99.90;;;;;;5051311;28;20188;-82
2021/11/21 11:27:17;;;;;;;51.03;16.30;;;8.00;99.90;;;;;;5051363;28;20847;-82
2021/11/21 11:29:46;;;;;;;47.70;27.53;;;8.00;99.90;;;;;;5050835;28;20438;-82
2021/11/21 11:32:37;;;;;;;14.93;11.27;;;8.10;99.90;;;;;;5051150;28;20544;-82
2021/11/21 11:35:05;;;;;;;5.07;4.60;;;8.10;99.90;;;;;;5051142;28;20414;-82
2021/11/21 11:37:52;;;;;;;3.43;2.93;;;8.10;99.90;;;;;;5050943;28;20406;-82
2021/11/21 11:40:30;;;;;;;3.53;2.67;;;8.10;99.90;;;;;;5051098;28;20442;-81
2021/11/21 11:42:58;;;;;;;6.60;5.67;;;8.10;99.90;;;;;;5050940;28;20448;-82
2021/11/21 11:45:46;;;;;;;7.20;6.50;;;8.00;99.90;;;;;;5050548;28;20421;-82
2021/11/21 11:48:45;;;;;;;4.47;4.07;;;8.00;99.90;;;;;;5050569;28;20403;-82
2021/11/21 11:51:41;;;;;;;3.00;2.80;;;8.00;99.90;;;;;;5051045;28;20883;-82
2021/11/21 11:54:18;;;;;;;12.00;10.23;;;7.90;99.90;;;;;;5050624;28;20452;-83
2021/11/21 11:56:55;;;;;;;5.93;5.40;;;8.10;99.90;;;;;;5050917;28;20900;-82
2021/11/21 11:59:29;;;;;;;5.57;5.07;;;8.10;99.90;;;;;;5050530;28;20414;-82
2021/11/21 12:01:57;;;;;;;4.63;4.20;;;8.20;99.90;;;;;;5050764;28;20408;-83
2021/11/21 12:04:23;;;;;;;7.03;6.40;;;8.20;99.90;;;;;;5050910;28;20423;-82
2021/11/21 12:06:51;;;;;;;7.10;6.20;;;8.30;99.90;;;;;;5051242;28;20414;-84
2021/11/21 12:09:19;;;;;;;7.27;6.53;;;8.30;99.90;;;;;;5050739;28;20182;-81
2021/11/21 12:12:03;;;;;;;6.13;5.07;;;8.30;99.90;;;;;;5050648;28;20450;-82
2021/11/21 12:14:35;;;;;;;9.23;7.20;;;8.20;99.90;;;;;;5050673;28;20444;-84
2021/11/21 12:17:03;;;;;;;10.03;8.57;;;8.20;99.90;;;;;;5050620;28;20414;-82
2021/11/21 12:19:45;;;;;;;6.87;5.37;;;8.20;99.90;;;;;;5050208;28;20422;-82
2021/11/21 12:22:40;;;;;;;3.00;2.70;;;8.10;99.90;;;;;;5050481;28;20411;-82
2021/11/21 12:25:07;;;;;;;5.90;2.77;;;8.10;99.90;;;;;;5029708;28;20500;-81
2021/11/21 12:27:34;;;;;;;15.80;9.50;;;8.10;99.90;;;;;;5051557;28;20402;-81
2021/11/21 12:30:13;;;;;;;10.43;7.17;;;8.10;99.90;;;;;;5050516;28;20559;-81
2021/11/21 12:32:56;;;;;;;18.20;11.90;;;8.10;99.90;;;;;;5050099;28;20454;-81
2021/11/21 12:35:28;;;;;;;14.33;10.57;;;8.00;99.90;;;;;;5050554;28;20449;-81
2021/11/21 12:37:56;;;;;;;10.20;6.03;;;8.00;99.90;;;;;;5050304;28;20825;-81
2021/11/21 12:40:25;;;;;;;13.30;10.87;;;8.00;99.90;;;;;;5050322;28;20770;-81
2021/11/21 12:43:07;;;;;;;15.13;12.20;;;7.90;99.90;;;;;;5050271;28;20447;-81
2021/11/21 12:45:37;;;;;;;11.77;9.67;;;8.00;99.90;;;;;;5050291;28;20426;-81
2021/11/21 12:48:04;;;;;;;12.13;9.50;;;8.00;99.90;;;;;;5048621;28;20442;-81
2021/11/21 12:50:38;;;;;;;13.37;9.93;;;8.00;99.90;;;;;;5030819;28;20415;-81
2021/11/21 12:53:21;;;;;;;13.10;10.60;;;8.00;99.90;;;;;;5030066;28;20461;-81
2021/11/21 12:55:50;;;;;;;11.80;9.40;;;7.90;99.90;;;;;;5030154;28;20439;-81
2021/11/21 12:58:24;;;;;;;11.63;8.53;;;7.90;99.90;;;;;;5033270;28;20407;-81
2021/11/21 13:00:52;;;;;;;11.20;8.00;;;7.90;99.90;;;;;;5053820;28;20444;-80